sensor_id;sensor_type;location;lat;lon;timestamp;P1;durP1;ratioP1;P2;durP2;ratioP2
17052;SDS011;8643;48.824;11.422;2022-07-01T00:00:54;7.13;;;5.05;;
17052;SDS011;8643;48.824;11.422;2022-07-01T00:03:23;9.48;;;4.80;;
17052;SDS011;8643;48.824;11.422;2022-07-01T00:05:51;7.82;;;4.95;;
17052;SDS011;8643;48.824;11.422;2022-07-01T00:08:20;6.75;;;3.92;;
17052;SDS011;8643;48.824;11.422;2022-07-01T00:10:49;7.18;;;3.78;;
17052;SDS011;8643;48.824;11.422;2022-07-01T00:13:17;9.10;;;3.72;;
17052;SDS011;8643;48.824;11.422;2022-07-01T00:15:47;5.85;;;3.33;;
17052;SDS011;8643;48.824;11.422;2022-07-01T00:18:16;4.75;;;3.38;;
17052;SDS011;8643;48.824;11.422;2022-07-01T00:20:47;6.65;;;3.30;;
17052;SDS011;8643;48.824;11.422;2022-07-01T00:23:17;6.55;;;3.10;;
17052;SDS011;8643;48.824;11.422;2022-07-01T00:25:46;4.10;;;3.05;;
17052;SDS011;8643;48.824;11.422;2022-07-01T00:28:14;6.72;;;3.10;;
17052;SDS011;8643;48.824;11.422;2022-07-01T00:30:43;7.50;;;3.35;;
17052;SDS011;8643;48.824;11.422;2022-07-01T00:33:12;4.50;;;3.38;;
17052;SDS011;8643;48.824;11.422;2022-07-01T00:35:41;7.63;;;3.60;;
17052;SDS011;8643;48.824;11.422;2022-07-01T00:38:10;4.38;;;2.70;;
17052;SDS011;8643;48.824;11.422;2022-07-01T00:40:38;4.72;;;3.00;;
17052;SDS011;8643;48.824;11.422;2022-07-01T00:43:07;6.97;;;3.40;;
17052;SDS011;8643;48.824;11.422;2022-07-01T00:45:35;6.97;;;3.45;;
17052;SDS011;8643;48.824;11.422;2022-07-01T00:48:10;4.28;;;3.17;;
17052;SDS011;8643;48.824;11.422;2022-07-01T00:50:40;7.53;;;3.15;;
17052;SDS011;8643;48.824;11.422;2022-07-01T00:53:08;3.42;;;2.67;;
17052;SDS011;8643;48.824;11.422;2022-07-01T00:55:37;3.90;;;2.72;;
17052;SDS011;8643;48.824;11.422;2022-07-01T00:58:05;4.05;;;2.80;;
17052;SDS011;8643;48.824;11.422;2022-07-01T01:00:35;5.22;;;2.33;;
17052;SDS011;8643;48.824;11.422;2022-07-01T01:03:05;5.90;;;2.40;;
17052;SDS011;8643;48.824;11.422;2022-07-01T01:05:38;3.92;;;2.50;;
17052;SDS011;8643;48.824;11.422;2022-07-01T01:08:08;3.40;;;2.08;;
17052;SDS011;8643;48.824;11.422;2022-07-01T01:10:37;2.75;;;2.28;;
17052;SDS011;8643;48.824;11.422;2022-07-01T01:13:07;3.50;;;2.38;;
17052;SDS011;8643;48.824;11.422;2022-07-01T01:15:39;2.78;;;2.20;;
17052;SDS011;8643;48.824;11.422;2022-07-01T01:18:07;5.20;;;2.08;;
17052;SDS011;8643;48.824;11.422;2022-07-01T01:20:37;2.75;;;1.98;;
17052;SDS011;8643;48.824;11.422;2022-07-01T01:23:06;3.70;;;2.40;;
17052;SDS011;8643;48.824;11.422;2022-07-01T01:25:35;4.10;;;1.88;;
17052;SDS011;8643;48.824;11.422;2022-07-01T01:28:04;3.28;;;1.83;;
17052;SDS011;8643;48.824;11.422;2022-07-01T01:30:33;3.90;;;1.70;;
17052;SDS011;8643;48.824;11.422;2022-07-01T01:33:02;4.22;;;1.70;;
17052;SDS011;8643;48.824;11.422;2022-07-01T01:35:30;3.90;;;1.60;;
17052;SDS011;8643;48.824;11.422;2022-07-01T01:38:00;1.70;;;1.60;;
17052;SDS011;8643;48.824;11.422;2022-07-01T01:40:29;2.08;;;1.48;;
17052;SDS011;8643;48.824;11.422;2022-07-01T01:42:57;2.83;;;1.38;;
17052;SDS011;8643;48.824;11.422;2022-07-01T01:45:26;2.58;;;1.30;;
17052;SDS011;8643;48.824;11.422;2022-07-01T01:47:55;4.82;;;1.65;;
17052;SDS011;8643;48.824;11.422;2022-07-01T01:50:24;1.85;;;1.33;;
17052;SDS011;8643;48.824;11.422;2022-07-01T01:52:52;1.25;;;1.13;;
17052;SDS011;8643;48.824;11.422;2022-07-01T01:55:22;2.08;;;1.50;;
17052;SDS011;8643;48.824;11.422;2022-07-01T01:57:50;2.15;;;1.50;;
17052;SDS011;8643;48.824;11.422;2022-07-01T02:00:19;3.50;;;1.52;;
17052;SDS011;8643;48.824;11.422;2022-07-01T02:02:47;2.35;;;1.30;;
17052;SDS011;8643;48.824;11.422;2022-07-01T02:05:16;2.30;;;1.40;;
17052;SDS011;8643;48.824;11.422;2022-07-01T02:07:45;1.73;;;1.40;;
17052;SDS011;8643;48.824;11.422;2022-07-01T02:10:14;3.20;;;1.52;;
17052;SDS011;8643;48.824;11.422;2022-07-01T02:12:44;3.10;;;1.50;;
17052;SDS011;8643;48.824;11.422;2022-07-01T02:15:13;2.90;;;1.40;;
17052;SDS011;8643;48.824;11.422;2022-07-01T02:17:42;2.00;;;1.30;;
17052;SDS011;8643;48.824;11.422;2022-07-01T02:20:10;1.65;;;1.30;;
17052;SDS011;8643;48.824;11.422;2022-07-01T02:22:41;2.75;;;1.50;;
17052;SDS011;8643;48.824;11.422;2022-07-01T02:25:09;1.85;;;1.60;;
17052;SDS011;8643;48.824;11.422;2022-07-01T02:27:38;4.07;;;1.83;;
17052;SDS011;8643;48.824;11.422;2022-07-01T02:30:08;1.50;;;1.40;;
17052;SDS011;8643;48.824;11.422;2022-07-01T02:32:38;1.98;;;1.40;;
17052;SDS011;8643;48.824;11.422;2022-07-01T02:35:06;2.38;;;1.40;;
17052;SDS011;8643;48.824;11.422;2022-07-01T02:37:35;2.00;;;1.58;;
17052;SDS011;8643;48.824;11.422;2022-07-01T02:40:04;1.70;;;1.33;;
17052;SDS011;8643;48.824;11.422;2022-07-01T02:42:33;2.25;;;1.50;;
17052;SDS011;8643;48.824;11.422;2022-07-01T02:45:04;3.05;;;1.50;;
17052;SDS011;8643;48.824;11.422;2022-07-01T02:47:36;1.70;;;1.50;;
17052;SDS011;8643;48.824;11.422;2022-07-01T02:50:07;2.05;;;1.60;;
17052;SDS011;8643;48.824;11.422;2022-07-01T02:52:37;1.80;;;1.40;;
17052;SDS011;8643;48.824;11.422;2022-07-01T02:55:08;2.10;;;1.60;;
17052;SDS011;8643;48.824;11.422;2022-07-01T02:57:38;1.58;;;1.42;;
17052;SDS011;8643;48.824;11.422;2022-07-01T03:00:09;2.40;;;1.55;;
17052;SDS011;8643;48.824;11.422;2022-07-01T03:02:40;2.55;;;1.50;;
17052;SDS011;8643;48.824;11.422;2022-07-01T03:05:09;1.90;;;1.50;;
17052;SDS011;8643;48.824;11.422;2022-07-01T03:07:38;2.97;;;1.40;;
17052;SDS011;8643;48.824;11.422;2022-07-01T03:10:08;2.70;;;1.80;;
17052;SDS011;8643;48.824;11.422;2022-07-01T03:12:37;2.60;;;1.80;;
17052;SDS011;8643;48.824;11.422;2022-07-01T03:15:07;2.08;;;1.50;;
17052;SDS011;8643;48.824;11.422;2022-07-01T03:17:38;2.20;;;1.60;;
17052;SDS011;8643;48.824;11.422;2022-07-01T03:20:10;1.65;;;1.42;;
17052;SDS011;8643;48.824;11.422;2022-07-01T03:22:40;2.47;;;1.70;;
17052;SDS011;8643;48.824;11.422;2022-07-01T03:25:11;2.00;;;1.60;;
17052;SDS011;8643;48.824;11.422;2022-07-01T03:27:40;2.30;;;1.48;;
17052;SDS011;8643;48.824;11.422;2022-07-01T03:30:12;1.92;;;1.58;;
17052;SDS011;8643;48.824;11.422;2022-07-01T03:32:43;1.63;;;1.20;;
17052;SDS011;8643;48.824;11.422;2022-07-01T03:35:11;1.70;;;1.50;;
17052;SDS011;8643;48.824;11.422;2022-07-01T03:37:54;2.47;;;1.42;;
17052;SDS011;8643;48.824;11.422;2022-07-01T03:40:23;3.42;;;1.40;;
17052;SDS011;8643;48.824;11.422;2022-07-01T03:42:52;1.45;;;1.30;;
17052;SDS011;8643;48.824;11.422;2022-07-01T03:45:20;1.98;;;1.23;;
17052;SDS011;8643;48.824;11.422;2022-07-01T03:47:51;1.88;;;1.33;;
17052;SDS011;8643;48.824;11.422;2022-07-01T03:50:20;1.23;;;1.13;;
17052;SDS011;8643;48.824;11.422;2022-07-01T03:52:50;1.33;;;1.17;;
17052;SDS011;8643;48.824;11.422;2022-07-01T03:55:41;1.23;;;0.90;;
17052;SDS011;8643;48.824;11.422;2022-07-01T03:58:09;3.53;;;1.40;;
17052;SDS011;8643;48.824;11.422;2022-07-01T04:00:37;1.20;;;1.10;;
17052;SDS011;8643;48.824;11.422;2022-07-01T04:03:08;1.20;;;1.10;;
17052;SDS011;8643;48.824;11.422;2022-07-01T04:05:37;2.78;;;1.20;;
17052;SDS011;8643;48.824;11.422;2022-07-01T04:08:07;1.38;;;1.15;;
17052;SDS011;8643;48.824;11.422;2022-07-01T04:10:38;2.05;;;1.13;;
17052;SDS011;8643;48.824;11.422;2022-07-01T04:13:08;1.45;;;1.23;;
17052;SDS011;8643;48.824;11.422;2022-07-01T04:15:57;1.40;;;1.20;;
17052;SDS011;8643;48.824;11.422;2022-07-01T04:18:29;2.85;;;1.25;;
17052;SDS011;8643;48.824;11.422;2022-07-01T04:20:58;3.15;;;1.50;;
17052;SDS011;8643;48.824;11.422;2022-07-01T04:23:44;1.40;;;1.20;;
17052;SDS011;8643;48.824;11.422;2022-07-01T04:26:13;1.30;;;1.20;;
17052;SDS011;8643;48.824;11.422;2022-07-01T04:29:03;1.30;;;1.00;;
17052;SDS011;8643;48.824;11.422;2022-07-01T04:31:32;3.08;;;1.20;;
17052;SDS011;8643;48.824;11.422;2022-07-01T04:34:02;3.28;;;1.30;;
17052;SDS011;8643;48.824;11.422;2022-07-01T04:36:31;1.60;;;1.20;;
17052;SDS011;8643;48.824;11.422;2022-07-01T04:39:00;1.75;;;1.33;;
17052;SDS011;8643;48.824;11.422;2022-07-01T04:41:29;2.92;;;1.20;;
17052;SDS011;8643;48.824;11.422;2022-07-01T04:44:16;2.13;;;1.30;;
17052;SDS011;8643;48.824;11.422;2022-07-01T04:46:45;1.85;;;1.20;;
17052;SDS011;8643;48.824;11.422;2022-07-01T04:49:15;1.98;;;1.20;;
17052;SDS011;8643;48.824;11.422;2022-07-01T04:51:44;1.38;;;1.23;;
17052;SDS011;8643;48.824;11.422;2022-07-01T04:54:12;1.23;;;1.13;;
17052;SDS011;8643;48.824;11.422;2022-07-01T04:56:41;1.60;;;1.15;;
17052;SDS011;8643;48.824;11.422;2022-07-01T04:59:10;1.48;;;1.05;;
17052;SDS011;8643;48.824;11.422;2022-07-01T05:01:39;2.63;;;1.05;;
17052;SDS011;8643;48.824;11.422;2022-07-01T05:04:08;1.13;;;1.02;;
17052;SDS011;8643;48.824;11.422;2022-07-01T05:06:40;2.58;;;1.05;;
17052;SDS011;8643;48.824;11.422;2022-07-01T05:09:09;1.77;;;1.10;;
17052;SDS011;8643;48.824;11.422;2022-07-01T05:11:38;1.45;;;1.23;;
17052;SDS011;8643;48.824;11.422;2022-07-01T05:14:06;1.30;;;1.13;;
17052;SDS011;8643;48.824;11.422;2022-07-01T05:16:36;1.38;;;1.00;;
17052;SDS011;8643;48.824;11.422;2022-07-01T05:19:04;1.40;;;1.10;;
17052;SDS011;8643;48.824;11.422;2022-07-01T05:21:52;1.50;;;1.23;;
17052;SDS011;8643;48.824;11.422;2022-07-01T05:24:25;3.78;;;1.50;;
17052;SDS011;8643;48.824;11.422;2022-07-01T05:26:57;2.17;;;1.30;;
17052;SDS011;8643;48.824;11.422;2022-07-01T05:29:28;2.65;;;1.40;;
17052;SDS011;8643;48.824;11.422;2022-07-01T05:31:56;2.28;;;1.50;;
17052;SDS011;8643;48.824;11.422;2022-07-01T05:34:25;3.75;;;1.50;;
17052;SDS011;8643;48.824;11.422;2022-07-01T05:36:55;2.70;;;1.80;;
17052;SDS011;8643;48.824;11.422;2022-07-01T05:39:23;2.10;;;1.58;;
17052;SDS011;8643;48.824;11.422;2022-07-01T05:41:52;1.98;;;1.60;;
17052;SDS011;8643;48.824;11.422;2022-07-01T05:44:20;2.72;;;1.85;;
17052;SDS011;8643;48.824;11.422;2022-07-01T05:46:49;4.22;;;2.00;;
17052;SDS011;8643;48.824;11.422;2022-07-01T05:49:18;3.72;;;1.77;;
17052;SDS011;8643;48.824;11.422;2022-07-01T05:51:47;2.03;;;1.65;;
17052;SDS011;8643;48.824;11.422;2022-07-01T05:54:17;2.50;;;1.70;;
17052;SDS011;8643;48.824;11.422;2022-07-01T05:56:45;4.43;;;1.90;;
17052;SDS011;8643;48.824;11.422;2022-07-01T05:59:15;2.78;;;1.60;;
17052;SDS011;8643;48.824;11.422;2022-07-01T06:01:43;5.15;;;1.70;;
17052;SDS011;8643;48.824;11.422;2022-07-01T06:04:13;1.83;;;1.50;;
17052;SDS011;8643;48.824;11.422;2022-07-01T06:06:42;2.78;;;1.15;;
17052;SDS011;8643;48.824;11.422;2022-07-01T06:09:10;1.45;;;1.10;;
17052;SDS011;8643;48.824;11.422;2022-07-01T06:11:40;2.05;;;1.35;;
17052;SDS011;8643;48.824;11.422;2022-07-01T06:14:09;2.03;;;1.10;;
17052;SDS011;8643;48.824;11.422;2022-07-01T06:16:38;1.20;;;0.98;;
17052;SDS011;8643;48.824;11.422;2022-07-01T06:19:06;1.88;;;1.05;;
17052;SDS011;8643;48.824;11.422;2022-07-01T06:21:35;1.83;;;1.17;;
17052;SDS011;8643;48.824;11.422;2022-07-01T06:24:04;2.53;;;1.00;;
17052;SDS011;8643;48.824;11.422;2022-07-01T06:26:33;1.55;;;1.20;;
17052;SDS011;8643;48.824;11.422;2022-07-01T06:29:03;1.00;;;0.90;;
17052;SDS011;8643;48.824;11.422;2022-07-01T06:31:32;1.30;;;1.00;;
17052;SDS011;8643;48.824;11.422;2022-07-01T06:34:01;0.80;;;0.80;;
17052;SDS011;8643;48.824;11.422;2022-07-01T06:36:30;1.90;;;0.90;;
17052;SDS011;8643;48.824;11.422;2022-07-01T06:38:58;0.93;;;0.85;;
17052;SDS011;8643;48.824;11.422;2022-07-01T06:41:27;1.58;;;1.20;;
17052;SDS011;8643;48.824;11.422;2022-07-01T06:43:56;1.40;;;0.98;;
17052;SDS011;8643;48.824;11.422;2022-07-01T06:46:27;1.45;;;1.10;;
17052;SDS011;8643;48.824;11.422;2022-07-01T06:48:57;1.58;;;1.00;;
17052;SDS011;8643;48.824;11.422;2022-07-01T06:51:26;1.23;;;1.00;;
17052;SDS011;8643;48.824;11.422;2022-07-01T06:53:54;1.23;;;1.10;;
17052;SDS011;8643;48.824;11.422;2022-07-01T06:56:23;1.10;;;1.00;;
17052;SDS011;8643;48.824;11.422;2022-07-01T06:58:52;1.23;;;1.00;;
17052;SDS011;8643;48.824;11.422;2022-07-01T07:01:20;1.33;;;1.10;;
17052;SDS011;8643;48.824;11.422;2022-07-01T07:03:51;1.23;;;1.13;;
17052;SDS011;8643;48.824;11.422;2022-07-01T07:06:19;2.30;;;1.00;;
17052;SDS011;8643;48.824;11.422;2022-07-01T07:08:48;1.45;;;0.90;;
17052;SDS011;8643;48.824;11.422;2022-07-01T07:11:17;1.65;;;1.00;;
17052;SDS011;8643;48.824;11.422;2022-07-01T07:13:46;1.10;;;0.90;;
17052;SDS011;8643;48.824;11.422;2022-07-01T07:16:15;3.88;;;0.88;;
17052;SDS011;8643;48.824;11.422;2022-07-01T07:18:47;1.33;;;1.05;;
17052;SDS011;8643;48.824;11.422;2022-07-01T07:21:18;1.05;;;0.95;;
17052;SDS011;8643;48.824;11.422;2022-07-01T07:23:46;0.90;;;0.63;;
17052;SDS011;8643;48.824;11.422;2022-07-01T07:26:15;1.08;;;0.90;;
17052;SDS011;8643;48.824;11.422;2022-07-01T07:28:43;1.85;;;0.80;;
17052;SDS011;8643;48.824;11.422;2022-07-01T07:31:12;1.40;;;1.02;;
17052;SDS011;8643;48.824;11.422;2022-07-01T07:33:41;2.33;;;1.00;;
17052;SDS011;8643;48.824;11.422;2022-07-01T07:36:11;1.77;;;0.90;;
17052;SDS011;8643;48.824;11.422;2022-07-01T07:38:40;1.77;;;1.00;;
17052;SDS011;8643;48.824;11.422;2022-07-01T07:41:08;0.95;;;0.88;;
17052;SDS011;8643;48.824;11.422;2022-07-01T07:43:37;1.48;;;1.00;;
17052;SDS011;8643;48.824;11.422;2022-07-01T07:46:05;1.00;;;0.90;;
17052;SDS011;8643;48.824;11.422;2022-07-01T07:48:34;6.57;;;2.38;;
17052;SDS011;8643;48.824;11.422;2022-07-01T07:51:03;1.52;;;1.20;;
17052;SDS011;8643;48.824;11.422;2022-07-01T07:53:33;1.75;;;0.80;;
17052;SDS011;8643;48.824;11.422;2022-07-01T07:56:01;1.60;;;0.70;;
17052;SDS011;8643;48.824;11.422;2022-07-01T07:58:30;1.08;;;0.73;;
17052;SDS011;8643;48.824;11.422;2022-07-01T08:00:58;2.72;;;0.60;;
17052;SDS011;8643;48.824;11.422;2022-07-01T08:03:30;1.48;;;0.70;;
17052;SDS011;8643;48.824;11.422;2022-07-01T08:06:01;1.08;;;0.60;;
17052;SDS011;8643;48.824;11.422;2022-07-01T08:08:31;0.85;;;0.50;;
17052;SDS011;8643;48.824;11.422;2022-07-01T08:11:01;0.60;;;0.60;;
17052;SDS011;8643;48.824;11.422;2022-07-01T08:13:29;2.50;;;0.70;;
17052;SDS011;8643;48.824;11.422;2022-07-01T08:15:58;1.00;;;0.60;;
17052;SDS011;8643;48.824;11.422;2022-07-01T08:18:27;0.77;;;0.55;;
17052;SDS011;8643;48.824;11.422;2022-07-01T08:20:56;1.83;;;0.50;;
17052;SDS011;8643;48.824;11.422;2022-07-01T08:23:24;1.58;;;0.65;;
17052;SDS011;8643;48.824;11.422;2022-07-01T08:25:54;0.50;;;0.50;;
17052;SDS011;8643;48.824;11.422;2022-07-01T08:28:23;0.70;;;0.52;;
17052;SDS011;8643;48.824;11.422;2022-07-01T08:30:51;0.60;;;0.50;;
17052;SDS011;8643;48.824;11.422;2022-07-01T08:33:20;1.00;;;0.63;;
17052;SDS011;8643;48.824;11.422;2022-07-01T08:35:49;1.55;;;0.85;;
17052;SDS011;8643;48.824;11.422;2022-07-01T08:38:18;0.88;;;0.70;;
17052;SDS011;8643;48.824;11.422;2022-07-01T08:40:49;0.70;;;0.70;;
17052;SDS011;8643;48.824;11.422;2022-07-01T08:43:21;2.45;;;0.80;;
17052;SDS011;8643;48.824;11.422;2022-07-01T08:45:50;1.20;;;1.10;;
17052;SDS011;8643;48.824;11.422;2022-07-01T08:48:19;1.63;;;1.00;;
17052;SDS011;8643;48.824;11.422;2022-07-01T08:50:48;1.75;;;1.10;;
17052;SDS011;8643;48.824;11.422;2022-07-01T08:53:17;1.17;;;1.00;;
17052;SDS011;8643;48.824;11.422;2022-07-01T08:55:45;2.15;;;1.35;;
17052;SDS011;8643;48.824;11.422;2022-07-01T08:58:33;2.38;;;1.27;;
17052;SDS011;8643;48.824;11.422;2022-07-01T09:01:13;2.03;;;1.63;;
17052;SDS011;8643;48.824;11.422;2022-07-01T09:03:43;1.70;;;1.27;;
17052;SDS011;8643;48.824;11.422;2022-07-01T09:06:13;1.73;;;1.40;;
17052;SDS011;8643;48.824;11.422;2022-07-01T09:08:43;1.42;;;1.27;;
17052;SDS011;8643;48.824;11.422;2022-07-01T09:11:13;1.50;;;1.38;;
17052;SDS011;8643;48.824;11.422;2022-07-01T09:13:44;1.85;;;1.50;;
17052;SDS011;8643;48.824;11.422;2022-07-01T09:16:38;1.60;;;1.40;;
17052;SDS011;8643;48.824;11.422;2022-07-01T09:19:09;2.00;;;1.20;;
17052;SDS011;8643;48.824;11.422;2022-07-01T09:21:39;1.73;;;1.40;;
17052;SDS011;8643;48.824;11.422;2022-07-01T09:24:21;2.03;;;1.67;;
17052;SDS011;8643;48.824;11.422;2022-07-01T09:26:56;2.33;;;1.50;;
17052;SDS011;8643;48.824;11.422;2022-07-01T09:29:28;1.88;;;1.40;;
17052;SDS011;8643;48.824;11.422;2022-07-01T09:32:02;1.30;;;1.20;;
17052;SDS011;8643;48.824;11.422;2022-07-01T09:34:33;2.30;;;1.13;;
17052;SDS011;8643;48.824;11.422;2022-07-01T09:37:03;3.20;;;1.20;;
17052;SDS011;8643;48.824;11.422;2022-07-01T09:39:41;1.45;;;1.10;;
17052;SDS011;8643;48.824;11.422;2022-07-01T09:42:11;2.17;;;1.08;;
17052;SDS011;8643;48.824;11.422;2022-07-01T09:44:52;1.85;;;1.27;;
17052;SDS011;8643;48.824;11.422;2022-07-01T09:47:28;1.42;;;1.27;;
17052;SDS011;8643;48.824;11.422;2022-07-01T09:49:58;2.13;;;1.25;;
17052;SDS011;8643;48.824;11.422;2022-07-01T09:52:28;2.50;;;1.20;;
17052;SDS011;8643;48.824;11.422;2022-07-01T09:55:02;1.40;;;1.10;;
17052;SDS011;8643;48.824;11.422;2022-07-01T09:57:32;1.35;;;1.10;;
17052;SDS011;8643;48.824;11.422;2022-07-01T10:00:03;1.65;;;1.15;;
17052;SDS011;8643;48.824;11.422;2022-07-01T10:02:33;1.00;;;0.80;;
17052;SDS011;8643;48.824;11.422;2022-07-01T10:05:05;3.35;;;0.90;;
17052;SDS011;8643;48.824;11.422;2022-07-01T10:07:39;1.80;;;0.95;;
17052;SDS011;8643;48.824;11.422;2022-07-01T10:10:23;1.10;;;1.00;;
17052;SDS011;8643;48.824;11.422;2022-07-01T10:13:09;1.48;;;1.05;;
17052;SDS011;8643;48.824;11.422;2022-07-01T10:15:43;1.90;;;0.95;;
17052;SDS011;8643;48.824;11.422;2022-07-01T10:18:18;1.10;;;0.90;;
17052;SDS011;8643;48.824;11.422;2022-07-01T10:20:49;1.95;;;0.90;;
17052;SDS011;8643;48.824;11.422;2022-07-01T10:23:19;1.20;;;0.85;;
17052;SDS011;8643;48.824;11.422;2022-07-01T10:25:50;1.00;;;0.90;;
17052;SDS011;8643;48.824;11.422;2022-07-01T10:28:22;1.13;;;0.80;;
17052;SDS011;8643;48.824;11.422;2022-07-01T10:30:56;1.25;;;0.70;;
17052;SDS011;8643;48.824;11.422;2022-07-01T10:33:35;0.90;;;0.70;;
17052;SDS011;8643;48.824;11.422;2022-07-01T10:36:10;1.55;;;0.90;;
17052;SDS011;8643;48.824;11.422;2022-07-01T10:47:41;3.47;;;1.02;;
17052;SDS011;8643;48.824;11.422;2022-07-01T10:50:11;2.25;;;1.23;;
17052;SDS011;8643;48.824;11.422;2022-07-01T10:52:58;1.20;;;1.10;;
17052;SDS011;8643;48.824;11.422;2022-07-01T10:55:36;1.20;;;1.10;;
17052;SDS011;8643;48.824;11.422;2022-07-01T10:58:06;1.25;;;1.00;;
17052;SDS011;8643;48.824;11.422;2022-07-01T11:00:36;1.88;;;1.10;;
17052;SDS011;8643;48.824;11.422;2022-07-01T11:03:17;1.27;;;1.17;;
17052;SDS011;8643;48.824;11.422;2022-07-01T11:05:52;1.73;;;1.10;;
17052;SDS011;8643;48.824;11.422;2022-07-01T11:08:23;1.25;;;1.10;;
17052;SDS011;8643;48.824;11.422;2022-07-01T11:10:57;3.08;;;1.50;;
17052;SDS011;8643;48.824;11.422;2022-07-01T11:13:34;2.80;;;1.35;;
17052;SDS011;8643;48.824;11.422;2022-07-01T11:16:04;2.08;;;1.25;;
17052;SDS011;8643;48.824;11.422;2022-07-01T11:18:35;2.42;;;1.30;;
17052;SDS011;8643;48.824;11.422;2022-07-01T11:21:05;2.00;;;1.20;;
17052;SDS011;8643;48.824;11.422;2022-07-01T11:23:35;2.38;;;1.33;;
17052;SDS011;8643;48.824;11.422;2022-07-01T11:26:07;2.05;;;1.60;;
17052;SDS011;8643;48.824;11.422;2022-07-01T11:28:51;2.03;;;1.70;;
17052;SDS011;8643;48.824;11.422;2022-07-01T11:31:30;2.03;;;1.60;;
17052;SDS011;8643;48.824;11.422;2022-07-01T11:34:02;1.80;;;1.40;;
17052;SDS011;8643;48.824;11.422;2022-07-01T11:36:33;4.15;;;1.80;;
17052;SDS011;8643;48.824;11.422;2022-07-01T11:39:19;3.30;;;1.38;;
17052;SDS011;8643;48.824;11.422;2022-07-01T11:41:57;2.28;;;1.50;;
17052;SDS011;8643;48.824;11.422;2022-07-01T11:44:33;2.55;;;1.40;;
17052;SDS011;8643;48.824;11.422;2022-07-01T11:47:04;1.80;;;1.70;;
17052;SDS011;8643;48.824;11.422;2022-07-01T11:49:42;2.45;;;1.50;;
17052;SDS011;8643;48.824;11.422;2022-07-01T11:52:12;2.95;;;1.52;;
17052;SDS011;8643;48.824;11.422;2022-07-01T11:54:44;1.35;;;1.20;;
17052;SDS011;8643;48.824;11.422;2022-07-01T11:57:15;2.00;;;1.30;;
17052;SDS011;8643;48.824;11.422;2022-07-01T11:59:46;4.00;;;1.48;;
17052;SDS011;8643;48.824;11.422;2022-07-01T12:02:22;1.85;;;1.48;;
17052;SDS011;8643;48.824;11.422;2022-07-01T12:04:52;1.60;;;1.20;;
17052;SDS011;8643;48.824;11.422;2022-07-01T12:07:21;2.03;;;1.40;;
17052;SDS011;8643;48.824;11.422;2022-07-01T12:09:50;1.58;;;1.20;;
17052;SDS011;8643;48.824;11.422;2022-07-01T12:12:20;1.30;;;1.20;;
17052;SDS011;8643;48.824;11.422;2022-07-01T12:14:54;1.30;;;1.10;;
17052;SDS011;8643;48.824;11.422;2022-07-01T12:17:26;1.33;;;1.23;;
17052;SDS011;8643;48.824;11.422;2022-07-01T12:20:06;2.05;;;1.48;;
17052;SDS011;8643;48.824;11.422;2022-07-01T12:22:37;2.92;;;1.40;;
17052;SDS011;8643;48.824;11.422;2022-07-01T12:25:07;3.53;;;1.63;;
17052;SDS011;8643;48.824;11.422;2022-07-01T12:27:40;2.72;;;1.63;;
17052;SDS011;8643;48.824;11.422;2022-07-01T12:30:11;1.70;;;1.50;;
17052;SDS011;8643;48.824;11.422;2022-07-01T12:32:51;2.50;;;2.10;;
17052;SDS011;8643;48.824;11.422;2022-07-01T12:35:24;2.88;;;2.00;;
17052;SDS011;8643;48.824;11.422;2022-07-01T12:38:03;2.33;;;1.98;;
17052;SDS011;8643;48.824;11.422;2022-07-01T12:40:35;4.00;;;2.10;;
17052;SDS011;8643;48.824;11.422;2022-07-01T12:43:04;3.30;;;1.85;;
17052;SDS011;8643;48.824;11.422;2022-07-01T12:45:50;4.57;;;1.90;;
17052;SDS011;8643;48.824;11.422;2022-07-01T12:48:20;3.97;;;1.80;;
17052;SDS011;8643;48.824;11.422;2022-07-01T12:50:55;2.75;;;1.90;;
17052;SDS011;8643;48.824;11.422;2022-07-01T12:53:26;2.63;;;1.60;;
17052;SDS011;8643;48.824;11.422;2022-07-01T12:55:57;1.73;;;1.50;;
17052;SDS011;8643;48.824;11.422;2022-07-01T12:58:28;1.73;;;1.33;;
17052;SDS011;8643;48.824;11.422;2022-07-01T13:00:58;2.17;;;1.35;;
17052;SDS011;8643;48.824;11.422;2022-07-01T13:03:28;2.67;;;1.55;;
17052;SDS011;8643;48.824;11.422;2022-07-01T13:06:05;1.88;;;1.33;;
17052;SDS011;8643;48.824;11.422;2022-07-01T13:08:35;3.88;;;1.30;;
17052;SDS011;8643;48.824;11.422;2022-07-01T13:11:04;5.60;;;1.63;;
17052;SDS011;8643;48.824;11.422;2022-07-01T13:13:34;4.43;;;1.80;;
17052;SDS011;8643;48.824;11.422;2022-07-01T13:16:04;5.35;;;2.35;;
17052;SDS011;8643;48.824;11.422;2022-07-01T13:18:34;4.53;;;2.35;;
17052;SDS011;8643;48.824;11.422;2022-07-01T13:21:05;3.60;;;2.30;;
17052;SDS011;8643;48.824;11.422;2022-07-01T13:23:35;4.55;;;2.40;;
17052;SDS011;8643;48.824;11.422;2022-07-01T13:26:09;2.65;;;1.90;;
17052;SDS011;8643;48.824;11.422;2022-07-01T13:28:39;3.13;;;1.90;;
17052;SDS011;8643;48.824;11.422;2022-07-01T13:31:09;3.75;;;2.22;;
17052;SDS011;8643;48.824;11.422;2022-07-01T13:33:39;5.20;;;2.35;;
17052;SDS011;8643;48.824;11.422;2022-07-01T13:36:11;5.63;;;2.97;;
17052;SDS011;8643;48.824;11.422;2022-07-01T13:38:42;5.72;;;2.88;;
17052;SDS011;8643;48.824;11.422;2022-07-01T13:41:12;4.28;;;2.60;;
17052;SDS011;8643;48.824;11.422;2022-07-01T13:43:42;4.40;;;2.60;;
17052;SDS011;8643;48.824;11.422;2022-07-01T13:46:12;4.55;;;2.65;;
17052;SDS011;8643;48.824;11.422;2022-07-01T13:48:41;4.55;;;2.75;;
17052;SDS011;8643;48.824;11.422;2022-07-01T13:51:12;4.82;;;2.95;;
17052;SDS011;8643;48.824;11.422;2022-07-01T13:53:42;4.40;;;3.13;;
17052;SDS011;8643;48.824;11.422;2022-07-01T13:56:11;4.38;;;2.35;;
17052;SDS011;8643;48.824;11.422;2022-07-01T13:58:41;3.70;;;2.67;;
17052;SDS011;8643;48.824;11.422;2022-07-01T14:01:10;4.35;;;2.50;;
17052;SDS011;8643;48.824;11.422;2022-07-01T14:03:40;5.07;;;2.67;;
17052;SDS011;8643;48.824;11.422;2022-07-01T14:06:10;3.17;;;2.55;;
17052;SDS011;8643;48.824;11.422;2022-07-01T14:08:44;3.95;;;2.47;;
17052;SDS011;8643;48.824;11.422;2022-07-01T14:11:14;3.70;;;2.75;;
17052;SDS011;8643;48.824;11.422;2022-07-01T14:13:43;3.63;;;2.53;;
17052;SDS011;8643;48.824;11.422;2022-07-01T14:16:13;3.10;;;2.30;;
17052;SDS011;8643;48.824;11.422;2022-07-01T14:18:43;3.00;;;2.20;;
17052;SDS011;8643;48.824;11.422;2022-07-01T14:21:14;3.17;;;2.42;;
17052;SDS011;8643;48.824;11.422;2022-07-01T14:23:42;3.33;;;1.88;;
17052;SDS011;8643;48.824;11.422;2022-07-01T14:26:12;3.20;;;2.10;;
17052;SDS011;8643;48.824;11.422;2022-07-01T14:28:41;2.35;;;1.80;;
17052;SDS011;8643;48.824;11.422;2022-07-01T14:31:10;3.60;;;2.47;;
17052;SDS011;8643;48.824;11.422;2022-07-01T14:33:39;2.95;;;2.10;;
17052;SDS011;8643;48.824;11.422;2022-07-01T14:36:08;5.80;;;2.55;;
17052;SDS011;8643;48.824;11.422;2022-07-01T14:38:38;5.38;;;2.70;;
17052;SDS011;8643;48.824;11.422;2022-07-01T14:41:07;4.28;;;2.97;;
17052;SDS011;8643;48.824;11.422;2022-07-01T14:43:35;3.50;;;2.65;;
17052;SDS011;8643;48.824;11.422;2022-07-01T14:46:04;3.67;;;2.90;;
17052;SDS011;8643;48.824;11.422;2022-07-01T14:48:35;3.28;;;2.70;;
17052;SDS011;8643;48.824;11.422;2022-07-01T14:51:05;4.57;;;2.47;;
17052;SDS011;8643;48.824;11.422;2022-07-01T14:53:34;2.95;;;2.17;;
17052;SDS011;8643;48.824;11.422;2022-07-01T14:56:08;3.22;;;2.38;;
17052;SDS011;8643;48.824;11.422;2022-07-01T14:58:36;5.90;;;2.40;;
17052;SDS011;8643;48.824;11.422;2022-07-01T15:01:10;4.30;;;2.53;;
17052;SDS011;8643;48.824;11.422;2022-07-01T15:03:57;3.70;;;2.65;;
17052;SDS011;8643;48.824;11.422;2022-07-01T15:06:27;2.38;;;1.90;;
17052;SDS011;8643;48.824;11.422;2022-07-01T15:08:56;2.53;;;2.22;;
17052;SDS011;8643;48.824;11.422;2022-07-01T15:11:26;3.00;;;2.20;;
17052;SDS011;8643;48.824;11.422;2022-07-01T15:13:55;2.88;;;2.50;;
17052;SDS011;8643;48.824;11.422;2022-07-01T15:16:23;3.97;;;2.75;;
17052;SDS011;8643;48.824;11.422;2022-07-01T15:18:52;3.13;;;2.30;;